Gulf Spirit — CFL4920 — position and weather

sailwx.info

Track history (hours):
 
Tides and Currents Weather Stations Pressure Air Temp Water Temp Dewpoint Dewpoint Depression Visibility Wind Speed Wind Dir Waves Ship Positions

Gulf Spirit

Last reported at 2017-Sep-24 14:16 UTC. Time now 2017-Oct-19 23:52 UTC.
Position N 49°07' W 123°10'.
Warning: this ship's position is 25 days out of date.

Length 30 m.

Type: Fishing. MMSI: 316001412.

Date/timePositionNaut miles runAvg speedWind from/ knotsBaromVisibWave heightAir tempDewpointWater temp
2017-Sep-24 14:16N 49°07' W 123°10'1 2.8
2017-Sep-24 14:00N 49°07' W 123°11'3 5.9
2017-Sep-24 13:30N 49°07' W 123°16'4 7.6
2017-Sep-24 13:00N 49°04' W 123°19'4 8.8
2017-Sep-24 12:30N 49°00' W 123°18'4 8.5
2017-Sep-24 12:00N 48°56' W 123°18'4 8.8
2017-Sep-24 11:30N 48°51' W 123°19'3 6.5
2017-Sep-24 11:00N 48°48' W 123°20'4 8.8
2017-Sep-24 10:30N 48°44' W 123°21'4 7.8
2017-Sep-24 09:57N 48°40' W 123°21'3 7.2
2017-Sep-24 09:29N 48°36' W 123°20'4 7.5
2017-Sep-24 09:00N 48°33' W 123°19'4 7.3
2017-Sep-24 08:30N 48°30' W 123°16'3 6.7
2017-Sep-24 08:01N 48°26' W 123°16'4 7.5
2017-Sep-24 07:30N 48°23' W 123°19'4 7.4
2017-Sep-24 07:00N 48°22' W 123°24'4 7.1
2017-Sep-24 06:30N 48°20' W 123°29'4 6.4
2017-Sep-24 05:57N 48°18' W 123°33'3 7.2
2017-Sep-24 05:29N 48°18' W 123°39'4 7.2
2017-Sep-24 04:59N 48°19' W 123°44'7 7.1
2017-Sep-24 04:01N 48°21' W 123°54'1 7.1
2017-Sep-24 03:54N 48°21' W 123°55'3 7.5
2017-Sep-24 03:30N 48°22' W 123°59'4 8.4
2017-Sep-24 03:00N 48°23' W 124°05'4 8.2
2017-Sep-24 02:30N 48°25' W 124°11'4 8.4
2017-Sep-24 02:00N 48°26' W 124°17'4 8.9
2017-Sep-24 01:30N 48°28' W 124°23'4 8.8
2017-Sep-24 01:00N 48°29' W 124°30'4 8.4
2017-Sep-24 00:30N 48°30' W 124°36'3 5.1
2017-Sep-24 00:00N 48°31' W 124°39'1 3.0
2017-Sep-23 23:30N 48°31' W 124°42'2 3.7
2017-Sep-23 23:00N 48°31' W 124°44'2 3.3
2017-Sep-23 22:30N 48°31' W 124°47'1 1.8
2017-Sep-23 22:00N 48°31' W 124°45'3 5.4
2017-Sep-23 21:30N 48°31' W 124°42'1 1.9
2017-Sep-23 21:00N 48°31' W 124°43'1 2.7
2017-Sep-23 20:30N 48°31' W 124°45'0 0.7
2017-Sep-23 20:00N 48°31' W 124°45'60 1.4
2017-Sep-22 02:00N 48°52' W 123°20'4 7.6
2017-Sep-22 01:30N 48°55' W 123°18'4 8.6
2017-Sep-22 01:00N 48°59' W 123°19'4 8.4
2017-Sep-22 00:30N 49°04' W 123°20'4 7.7
2017-Sep-22 00:00N 49°07' W 123°17'3 6.7
2017-Sep-21 23:30N 49°07' W 123°11'0 0.0
2017-Sep-21 23:00N 49°07' W 123°11'0 0.0
2017-Sep-21 22:30N 49°07' W 123°11'  
2017-Sep-19 13:38N 49°07' W 123°10'0 1.2
2017-Sep-19 13:30N 49°07' W 123°10'3 5.6
2017-Sep-19 13:00N 49°08' W 123°14'4 8.0
2017-Sep-19 12:30N 49°05' W 123°19'4 8.8
2017-Sep-19 12:00N 49°01' W 123°19'4 8.3
2017-Sep-19 11:30N 48°57' W 123°18'4 8.8
2017-Sep-19 11:00N 48°52' W 123°18'3 6.2
2017-Sep-19 10:30N 48°50' W 123°20'4 8.7
2017-Sep-19 10:00N 48°45' W 123°21'4 8.8
2017-Sep-19 09:30N 48°41' W 123°21'4 8.3
2017-Sep-19 09:00N 48°37' W 123°20'4 8.5
2017-Sep-19 08:30N 48°33' W 123°19'4 8.2
2017-Sep-19 08:00N 48°29' W 123°15'4 8.4
2017-Sep-19 07:30N 48°25' W 123°17'4 7.6
2017-Sep-19 07:00N 48°24' W 123°22'2 3.5
2017-Sep-19 06:30N 48°25' W 123°22'3 6.6
2017-Sep-19 06:00N 48°23' W 123°26'4 8.2
2017-Sep-19 05:28N 48°20' W 123°30'3 6.8
2017-Sep-19 04:58N 48°18' W 123°34'13 7.5
2017-Sep-19 03:16N 48°21' W 123°53'3 6.9
2017-Sep-19 02:51N 48°22' W 123°57'2 7.3
2017-Sep-19 02:30N 48°23' W 124°01'3 7.0
2017-Sep-19 02:00N 48°24' W 124°05'4 8.2
2017-Sep-19 01:30N 48°25' W 124°11'4 7.6
2017-Sep-19 01:00N 48°26' W 124°17'4 8.0
2017-Sep-19 00:30N 48°28' W 124°22'4 8.1
2017-Sep-19 00:00N 48°29' W 124°28'4 8.2
2017-Sep-18 23:30N 48°30' W 124°34'3 5.3
2017-Sep-18 23:00N 48°30' W 124°38'2 4.4
2017-Sep-18 22:30N 48°29' W 124°35'1 3.0
2017-Sep-18 22:00N 48°29' W 124°37'2 4.0
2017-Sep-18 21:30N 48°30' W 124°40'0 1.0
2017-Sep-18 21:00N 48°30' W 124°41'2 3.9
2017-Sep-18 20:30N 48°31' W 124°43'3 6.4
2017-Sep-18 20:00N 48°30' W 124°39'4 7.6
2017-Sep-18 19:30N 48°29' W 124°33'4 7.6
2017-Sep-18 19:00N 48°28' W 124°28'1 1.9
2017-Sep-18 18:30N 48°28' W 124°26'1 2.3
2017-Sep-18 18:00N 48°28' W 124°25'1 2.4
2017-Sep-18 17:30N 48°28' W 124°27'4 7.2
2017-Sep-18 17:00N 48°31' W 124°28'3 5.9
2017-Sep-18 16:30N 48°32' W 124°33'3 7.0
2017-Sep-18 16:00N 48°31' W 124°38'2 4.0
2017-Sep-18 15:30N 48°30' W 124°35'4 8.3
2017-Sep-18 15:00N 48°32' W 124°30'2 3.7
2017-Sep-18 14:29N 48°33' W 124°28'0 0.1
2017-Sep-18 14:00N 48°33' W 124°28'0 0.1
2017-Sep-18 13:27N 48°33' W 124°28'0 0.0
2017-Sep-18 13:00N 48°33' W 124°28'0 0.1
2017-Sep-18 12:29N 48°33' W 124°28'0 0.1
2017-Sep-18 12:00N 48°33' W 124°28'0 0.0
2017-Sep-18 11:30N 48°33' W 124°28'0 0.0
2017-Sep-18 10:59N 48°33' W 124°28'0 0.0
2017-Sep-18 10:27N 48°33' W 124°28'0 0.0
2017-Sep-18 10:00N 48°33' W 124°28'0 0.0
2017-Sep-18 09:30N 48°33' W 124°28'0 0.0
2017-Sep-18 09:00N 48°33' W 124°28'0 0.0
2017-Sep-18 08:30N 48°33' W 124°28'0 0.0
2017-Sep-18 08:00N 48°33' W 124°28'0 0.0
2017-Sep-18 07:30N 48°33' W 124°28'0 0.0
2017-Sep-18 07:00N 48°33' W 124°28'0 0.0
2017-Sep-18 06:30N 48°33' W 124°28'0 0.0
2017-Sep-18 06:00N 48°33' W 124°28'0 0.0
2017-Sep-18 05:30N 48°33' W 124°28'0 0.0
2017-Sep-18 05:00N 48°33' W 124°28'0 0.0
2017-Sep-18 04:30N 48°33' W 124°28'1 1.5
2017-Sep-18 04:00N 48°33' W 124°28'4 8.2
2017-Sep-18 03:30N 48°32' W 124°34'4 7.8
2017-Sep-18 03:00N 48°31' W 124°40'1 1.6
2017-Sep-18 02:30N 48°31' W 124°41'1 1.6
2017-Sep-18 02:00N 48°31' W 124°40'2 3.0
2017-Sep-18 01:30N 48°31' W 124°38'1 2.2
2017-Sep-18 01:00N 48°31' W 124°39'1 2.7
2017-Sep-18 00:30N 48°31' W 124°42'1 2.8
2017-Sep-18 00:00N 48°31' W 124°44'2 3.7
2017-Sep-17 23:30N 48°31' W 124°41'2 3.7
2017-Sep-17 23:00N 48°30' W 124°38'1 2.7
2017-Sep-17 22:30N 48°31' W 124°40'2 3.9
2017-Sep-17 22:00N 48°31' W 124°43'1 2.1
2017-Sep-17 21:30N 48°31' W 124°45'2 4.2
2017-Sep-17 21:00N 48°30' W 124°42'1 2.8
2017-Sep-17 20:30N 48°31' W 124°43'0 1.0
2017-Sep-17 20:00N 48°31' W 124°44'3 5.0
2017-Sep-17 19:29N 48°32' W 124°48'3 5.3
2017-Sep-17 19:00N 48°32' W 124°44'1 2.8
2017-Sep-17 18:30N 48°31' W 124°42'1 2.3
2017-Sep-17 17:58N 48°31' W 124°41'1 2.2
2017-Sep-17 17:30N 48°31' W 124°39'1 1.0
2017-Sep-17 17:00N 48°31' W 124°40'4 7.8
2017-Sep-17 16:30N 48°32' W 124°46'1 1.0
2017-Sep-17 16:00N 48°32' W 124°45'3 5.3
2017-Sep-17 15:30N 48°31' W 124°41'4 7.1
2017-Sep-17 15:00N 48°30' W 124°36'4 8.6
2017-Sep-17 14:30N 48°32' W 124°30'2 4.7
2017-Sep-17 14:00N 48°33' W 124°28'0 0.0
2017-Sep-17 13:30N 48°33' W 124°28'0 0.0
2017-Sep-17 13:00N 48°33' W 124°28'0 0.0
2017-Sep-17 12:30N 48°33' W 124°28'0 0.0
2017-Sep-17 12:00N 48°33' W 124°28'0 0.0
2017-Sep-17 11:30N 48°33' W 124°28'0 0.0
2017-Sep-17 11:00N 48°33' W 124°28'0 0.0
2017-Sep-17 10:30N 48°33' W 124°28'0 0.0
2017-Sep-17 10:00N 48°33' W 124°28'0 0.0
2017-Sep-17 09:30N 48°33' W 124°28'0 0.0
2017-Sep-17 09:00N 48°33' W 124°28'1 1.4
2017-Sep-17 08:30N 48°33' W 124°28'4 7.4
2017-Sep-17 08:00N 48°30' W 124°25'4 7.9
2017-Sep-17 07:30N 48°28' W 124°20'4 7.8
2017-Sep-17 07:00N 48°26' W 124°15'4 7.7
2017-Sep-17 06:30N 48°24' W 124°09'4 8.1
2017-Sep-17 06:00N 48°23' W 124°04'4 8.0
2017-Sep-17 05:30N 48°21' W 123°58'4 8.5
2017-Sep-17 05:00N 48°20' W 123°52'4 8.7
2017-Sep-17 04:30N 48°19' W 123°46'5 9.3
2017-Sep-17 04:00N 48°18' W 123°39'4 7.8
2017-Sep-17 03:26N 48°18' W 123°33'4 9.7
2017-Sep-17 03:00N 48°21' W 123°28'5 9.0
2017-Sep-17 02:30N 48°25' W 123°24'1 1.7
2017-Sep-17 02:00N 48°25' W 123°23'3 6.1
2017-Sep-17 01:30N 48°23' W 123°20'4 8.9
2017-Sep-17 01:00N 48°25' W 123°13'5 9.1
2017-Sep-17 00:30N 48°29' W 123°14'4 8.4
2017-Sep-17 00:00N 48°34' W 123°14'4 8.4
2017-Sep-16 23:30N 48°38' W 123°15'6 8.9
2017-Sep-16 22:50N 48°44' W 123°17'3 9.2
2017-Sep-16 22:30N 48°46' W 123°19'4 8.6
2017-Sep-16 22:00N 48°50' W 123°21'3 6.2
2017-Sep-16 21:30N 48°53' W 123°18'4 8.5
2017-Sep-16 21:00N 48°57' W 123°18'4 8.1
2017-Sep-16 20:30N 49°01' W 123°19'4 7.5
2017-Sep-16 20:00N 49°05' W 123°19'4 7.5
2017-Sep-16 19:30N 49°07' W 123°15'3 5.1
2017-Sep-16 19:00N 49°07' W 123°11'0 0.0
2017-Sep-16 18:30N 49°07' W 123°11'  
Track history (hours):
 
Tides and Currents Weather Stations Pressure Air Temp Water Temp Dewpoint Dewpoint Depression Visibility Wind Speed Wind Dir Waves Ship Positions

Gulf Spirit

Last reported at 2017-Sep-24 14:16 UTC. Time now 2017-Oct-19 23:52 UTC.
Position N 49°07' W 123°10'.
Warning: this ship's position is 25 days out of date.

Length 30 m.

Type: Fishing. MMSI: 316001412.

Date/timePositionNaut miles runAvg speedWind from/ knotsBaromVisibWave heightAir tempDewpointWater temp
2017-Sep-24 14:16N 49°07' W 123°10'1 2.8
2017-Sep-24 14:00N 49°07' W 123°11'3 5.9
2017-Sep-24 13:30N 49°07' W 123°16'4 7.6
2017-Sep-24 13:00N 49°04' W 123°19'4 8.8
2017-Sep-24 12:30N 49°00' W 123°18'4 8.5
2017-Sep-24 12:00N 48°56' W 123°18'4 8.8
2017-Sep-24 11:30N 48°51' W 123°19'3 6.5
2017-Sep-24 11:00N 48°48' W 123°20'4 8.8
2017-Sep-24 10:30N 48°44' W 123°21'4 7.8
2017-Sep-24 09:57N 48°40' W 123°21'3 7.2
2017-Sep-24 09:29N 48°36' W 123°20'4 7.5
2017-Sep-24 09:00N 48°33' W 123°19'4 7.3
2017-Sep-24 08:30N 48°30' W 123°16'3 6.7
2017-Sep-24 08:01N 48°26' W 123°16'4 7.5
2017-Sep-24 07:30N 48°23' W 123°19'4 7.4
2017-Sep-24 07:00N 48°22' W 123°24'4 7.1
2017-Sep-24 06:30N 48°20' W 123°29'4 6.4
2017-Sep-24 05:57N 48°18' W 123°33'3 7.2
2017-Sep-24 05:29N 48°18' W 123°39'4 7.2
2017-Sep-24 04:59N 48°19' W 123°44'7 7.1
2017-Sep-24 04:01N 48°21' W 123°54'1 7.1
2017-Sep-24 03:54N 48°21' W 123°55'3 7.5
2017-Sep-24 03:30N 48°22' W 123°59'4 8.4
2017-Sep-24 03:00N 48°23' W 124°05'4 8.2
2017-Sep-24 02:30N 48°25' W 124°11'4 8.4
2017-Sep-24 02:00N 48°26' W 124°17'4 8.9
2017-Sep-24 01:30N 48°28' W 124°23'4 8.8
2017-Sep-24 01:00N 48°29' W 124°30'4 8.4
2017-Sep-24 00:30N 48°30' W 124°36'3 5.1
2017-Sep-24 00:00N 48°31' W 124°39'1 3.0
2017-Sep-23 23:30N 48°31' W 124°42'2 3.7
2017-Sep-23 23:00N 48°31' W 124°44'2 3.3
2017-Sep-23 22:30N 48°31' W 124°47'1 1.8
2017-Sep-23 22:00N 48°31' W 124°45'3 5.4
2017-Sep-23 21:30N 48°31' W 124°42'1 1.9
2017-Sep-23 21:00N 48°31' W 124°43'1 2.7
2017-Sep-23 20:30N 48°31' W 124°45'0 0.7
2017-Sep-23 20:00N 48°31' W 124°45'60 1.4
2017-Sep-22 02:00N 48°52' W 123°20'4 7.6
2017-Sep-22 01:30N 48°55' W 123°18'4 8.6
2017-Sep-22 01:00N 48°59' W 123°19'4 8.4
2017-Sep-22 00:30N 49°04' W 123°20'4 7.7
2017-Sep-22 00:00N 49°07' W 123°17'3 6.7
2017-Sep-21 23:30N 49°07' W 123°11'0 0.0
2017-Sep-21 23:00N 49°07' W 123°11'0 0.0
2017-Sep-21 22:30N 49°07' W 123°11'  
2017-Sep-19 13:38N 49°07' W 123°10'0 1.2
2017-Sep-19 13:30N 49°07' W 123°10'3 5.6
2017-Sep-19 13:00N 49°08' W 123°14'4 8.0
2017-Sep-19 12:30N 49°05' W 123°19'4 8.8
2017-Sep-19 12:00N 49°01' W 123°19'4 8.3
2017-Sep-19 11:30N 48°57' W 123°18'4 8.8
2017-Sep-19 11:00N 48°52' W 123°18'3 6.2
2017-Sep-19 10:30N 48°50' W 123°20'4 8.7
2017-Sep-19 10:00N 48°45' W 123°21'4 8.8
2017-Sep-19 09:30N 48°41' W 123°21'4 8.3
2017-Sep-19 09:00N 48°37' W 123°20'4 8.5
2017-Sep-19 08:30N 48°33' W 123°19'4 8.2
2017-Sep-19 08:00N 48°29' W 123°15'4 8.4
2017-Sep-19 07:30N 48°25' W 123°17'4 7.6
2017-Sep-19 07:00N 48°24' W 123°22'2 3.5
2017-Sep-19 06:30N 48°25' W 123°22'3 6.6
2017-Sep-19 06:00N 48°23' W 123°26'4 8.2
2017-Sep-19 05:28N 48°20' W 123°30'3 6.8
2017-Sep-19 04:58N 48°18' W 123°34'13 7.5
2017-Sep-19 03:16N 48°21' W 123°53'3 6.9
2017-Sep-19 02:51N 48°22' W 123°57'2 7.3
2017-Sep-19 02:30N 48°23' W 124°01'3 7.0
2017-Sep-19 02:00N 48°24' W 124°05'4 8.2
2017-Sep-19 01:30N 48°25' W 124°11'4 7.6
2017-Sep-19 01:00N 48°26' W 124°17'4 8.0
2017-Sep-19 00:30N 48°28' W 124°22'4 8.1
2017-Sep-19 00:00N 48°29' W 124°28'4 8.2
2017-Sep-18 23:30N 48°30' W 124°34'3 5.3
2017-Sep-18 23:00N 48°30' W 124°38'2 4.4
2017-Sep-18 22:30N 48°29' W 124°35'1 3.0
2017-Sep-18 22:00N 48°29' W 124°37'2 4.0
2017-Sep-18 21:30N 48°30' W 124°40'0 1.0
2017-Sep-18 21:00N 48°30' W 124°41'2 3.9
2017-Sep-18 20:30N 48°31' W 124°43'3 6.4
2017-Sep-18 20:00N 48°30' W 124°39'4 7.6
2017-Sep-18 19:30N 48°29' W 124°33'4 7.6
2017-Sep-18 19:00N 48°28' W 124°28'1 1.9
2017-Sep-18 18:30N 48°28' W 124°26'1 2.3
2017-Sep-18 18:00N 48°28' W 124°25'1 2.4
2017-Sep-18 17:30N 48°28' W 124°27'4 7.2
2017-Sep-18 17:00N 48°31' W 124°28'3 5.9
2017-Sep-18 16:30N 48°32' W 124°33'3 7.0
2017-Sep-18 16:00N 48°31' W 124°38'2 4.0
2017-Sep-18 15:30N 48°30' W 124°35'4 8.3
2017-Sep-18 15:00N 48°32' W 124°30'2 3.7
2017-Sep-18 14:29N 48°33' W 124°28'0 0.1
2017-Sep-18 14:00N 48°33' W 124°28'0 0.1
2017-Sep-18 13:27N 48°33' W 124°28'0 0.0
2017-Sep-18 13:00N 48°33' W 124°28'0 0.1
2017-Sep-18 12:29N 48°33' W 124°28'0 0.1
2017-Sep-18 12:00N 48°33' W 124°28'0 0.0
2017-Sep-18 11:30N 48°33' W 124°28'0 0.0
2017-Sep-18 10:59N 48°33' W 124°28'0 0.0
2017-Sep-18 10:27N 48°33' W 124°28'0 0.0
2017-Sep-18 10:00N 48°33' W 124°28'0 0.0
2017-Sep-18 09:30N 48°33' W 124°28'0 0.0
2017-Sep-18 09:00N 48°33' W 124°28'0 0.0
2017-Sep-18 08:30N 48°33' W 124°28'0 0.0
2017-Sep-18 08:00N 48°33' W 124°28'0 0.0
2017-Sep-18 07:30N 48°33' W 124°28'0 0.0
2017-Sep-18 07:00N 48°33' W 124°28'0 0.0
2017-Sep-18 06:30N 48°33' W 124°28'0 0.0
2017-Sep-18 06:00N 48°33' W 124°28'0 0.0
2017-Sep-18 05:30N 48°33' W 124°28'0 0.0
2017-Sep-18 05:00N 48°33' W 124°28'0 0.0
2017-Sep-18 04:30N 48°33' W 124°28'1 1.5
2017-Sep-18 04:00N 48°33' W 124°28'4 8.2
2017-Sep-18 03:30N 48°32' W 124°34'4 7.8
2017-Sep-18 03:00N 48°31' W 124°40'1 1.6
2017-Sep-18 02:30N 48°31' W 124°41'1 1.6
2017-Sep-18 02:00N 48°31' W 124°40'2 3.0
2017-Sep-18 01:30N 48°31' W 124°38'1 2.2
2017-Sep-18 01:00N 48°31' W 124°39'1 2.7
2017-Sep-18 00:30N 48°31' W 124°42'1 2.8
2017-Sep-18 00:00N 48°31' W 124°44'2 3.7
2017-Sep-17 23:30N 48°31' W 124°41'2 3.7
2017-Sep-17 23:00N 48°30' W 124°38'1 2.7
2017-Sep-17 22:30N 48°31' W 124°40'2 3.9
2017-Sep-17 22:00N 48°31' W 124°43'1 2.1
2017-Sep-17 21:30N 48°31' W 124°45'2 4.2
2017-Sep-17 21:00N 48°30' W 124°42'1 2.8
2017-Sep-17 20:30N 48°31' W 124°43'0 1.0
2017-Sep-17 20:00N 48°31' W 124°44'3 5.0
2017-Sep-17 19:29N 48°32' W 124°48'3 5.3
2017-Sep-17 19:00N 48°32' W 124°44'1 2.8
2017-Sep-17 18:30N 48°31' W 124°42'1 2.3
2017-Sep-17 17:58N 48°31' W 124°41'1 2.2
2017-Sep-17 17:30N 48°31' W 124°39'1 1.0
2017-Sep-17 17:00N 48°31' W 124°40'4 7.8
2017-Sep-17 16:30N 48°32' W 124°46'1 1.0
2017-Sep-17 16:00N 48°32' W 124°45'3 5.3
2017-Sep-17 15:30N 48°31' W 124°41'4 7.1
2017-Sep-17 15:00N 48°30' W 124°36'4 8.6
2017-Sep-17 14:30N 48°32' W 124°30'2 4.7
2017-Sep-17 14:00N 48°33' W 124°28'0 0.0
2017-Sep-17 13:30N 48°33' W 124°28'0 0.0
2017-Sep-17 13:00N 48°33' W 124°28'0 0.0
2017-Sep-17 12:30N 48°33' W 124°28'0 0.0
2017-Sep-17 12:00N 48°33' W 124°28'0 0.0
2017-Sep-17 11:30N 48°33' W 124°28'0 0.0
2017-Sep-17 11:00N 48°33' W 124°28'0 0.0
2017-Sep-17 10:30N 48°33' W 124°28'0 0.0
2017-Sep-17 10:00N 48°33' W 124°28'0 0.0
2017-Sep-17 09:30N 48°33' W 124°28'0 0.0
2017-Sep-17 09:00N 48°33' W 124°28'1 1.4
2017-Sep-17 08:30N 48°33' W 124°28'4 7.4
2017-Sep-17 08:00N 48°30' W 124°25'4 7.9
2017-Sep-17 07:30N 48°28' W 124°20'4 7.8
2017-Sep-17 07:00N 48°26' W 124°15'4 7.7
2017-Sep-17 06:30N 48°24' W 124°09'4 8.1
2017-Sep-17 06:00N 48°23' W 124°04'4 8.0
2017-Sep-17 05:30N 48°21' W 123°58'4 8.5
2017-Sep-17 05:00N 48°20' W 123°52'4 8.7
2017-Sep-17 04:30N 48°19' W 123°46'5 9.3
2017-Sep-17 04:00N 48°18' W 123°39'4 7.8
2017-Sep-17 03:26N 48°18' W 123°33'4 9.7
2017-Sep-17 03:00N 48°21' W 123°28'5 9.0
2017-Sep-17 02:30N 48°25' W 123°24'1 1.7
2017-Sep-17 02:00N 48°25' W 123°23'3 6.1
2017-Sep-17 01:30N 48°23' W 123°20'4 8.9
2017-Sep-17 01:00N 48°25' W 123°13'5 9.1
2017-Sep-17 00:30N 48°29' W 123°14'4 8.4
2017-Sep-17 00:00N 48°34' W 123°14'4 8.4
2017-Sep-16 23:30N 48°38' W 123°15'6 8.9
2017-Sep-16 22:50N 48°44' W 123°17'3 9.2
2017-Sep-16 22:30N 48°46' W 123°19'4 8.6
2017-Sep-16 22:00N 48°50' W 123°21'3 6.2
2017-Sep-16 21:30N 48°53' W 123°18'4 8.5
2017-Sep-16 21:00N 48°57' W 123°18'4 8.1
2017-Sep-16 20:30N 49°01' W 123°19'4 7.5
2017-Sep-16 20:00N 49°05' W 123°19'4 7.5
2017-Sep-16 19:30N 49°07' W 123°15'3 5.1
2017-Sep-16 19:00N 49°07' W 123°11'0 0.0
2017-Sep-16 18:30N 49°07' W 123°11'  

Dump ship's entire track history